Groom, Texas
Current Conditions -  °F | °C
As of 4:55 PM on Wednesday 26 Nov 2014 (Local Time) from KPPA Reporting Station
Clear Clear  
Wind Chill: 44°   Ceiling: Unl
Heat Index: 47°   Visibility: 10mi
Dew Point: 21°   Wind: 5mph
Humidity: 37%   Direction: 30°NNE
Pressure: 30.29"   Gusts: NA
Location:  35.2°N, 101.11°W
Report Text: KPPA 262255Z AUTO 03004KT 10SM CLR 08/M06 A3029 RMK AO2 T00811060 PNO
Loading
Personal Weather Stations






























Interactive Weather Map New forecast layout! Learn more

10-Day Weather Forecast

Advertisements
Track Severe Weather on mobile